Time;durP1;ratioP1;P1;durP2;ratioP2;P2;SDS_P1;SDS_P2;PMS_P1;PMS_P2;Temp;Humidity;BMP_temperature;BMP_pressure;BME280_temperature;BME280_humidity;BME280_pressure;Samples;Min_cycle;Max_cycle;Signal;HPM_P1;HPM_P2
2023/09/26 00:02:59;;;;;;;3.58;3.03;;;;;;;11.93;100.00;151677.84;10480714;28;20040;-70
2023/09/26 00:08:03;;;;;;;3.30;3.00;;;;;;;11.78;100.00;151639.03;10508525;28;20040;-71
2023/09/26 00:13:05;;;;;;;6.15;3.05;;;;;;;12.05;100.00;151708.88;10508185;28;20044;-71
2023/09/26 00:18:07;;;;;;;3.88;3.35;;;;;;;12.17;100.00;151738.56;10508379;28;20086;-71
2023/09/26 00:23:09;;;;;;;3.75;3.10;;;;;;;11.85;100.00;151658.44;10472170;28;20044;-70
2023/09/26 00:28:12;;;;;;;3.22;2.92;;;;;;;12.02;100.00;151699.81;10507777;28;20075;-70
2023/09/26 00:33:14;;;;;;;4.28;3.20;;;;;;;11.98;100.00;151690.75;10489404;28;20492;-70
2023/09/26 00:38:16;;;;;;;4.00;3.60;;;;;;;11.95;100.00;151681.69;10506075;28;20411;-70
2023/09/26 00:43:24;;;;;;;3.58;3.28;;;;;;;11.66;100.00;151609.28;10488034;28;20459;-70
2023/09/26 00:48:27;;;;;;;3.67;3.15;;;;;;;11.67;100.00;151610.56;10505786;28;20454;-70
2023/09/26 00:53:30;;;;;;;3.92;3.35;;;;;;;11.71;100.00;151620.91;10489162;28;20044;-71
2023/09/26 00:58:32;;;;;;;4.57;4.18;;;;;;;11.76;100.00;151635.13;10471227;28;20048;-70
2023/09/26 01:03:34;;;;;;;3.65;3.35;;;;;;;11.47;100.00;151560.22;10505742;28;20064;-70
2023/09/26 01:08:37;;;;;;;4.22;3.83;;;;;;;11.30;100.00;151518.84;10487177;28;20075;-70
2023/09/26 01:13:39;;;;;;;3.63;3.33;;;;;;;11.49;100.00;151566.63;10506735;28;20083;-70
2023/09/26 01:18:41;;;;;;;3.80;3.50;;;;;;;11.45;100.00;151555.00;10503660;28;20538;-70
2023/09/26 01:23:48;;;;;;;4.20;3.80;;;;;;;11.31;100.00;151521.41;10504459;28;20127;-71
2023/09/26 01:28:51;;;;;;;5.28;4.78;;;;;;;11.43;100.00;151551.16;10486996;28;20484;-70
2023/09/26 01:33:53;;;;;;;5.15;4.75;;;;;;;11.20;100.00;151493.03;10487566;28;20065;-70
2023/09/26 01:38:55;;;;;;;6.55;4.13;;;;;;;11.47;100.00;151561.50;10505223;28;20076;-71
2023/09/26 01:43:56;;;;;;;4.38;4.05;;;;;;;11.43;100.00;151549.88;10503762;28;20098;-70
2023/09/26 01:48:58;;;;;;;4.82;4.40;;;;;;;11.23;100.00;151499.47;10477775;28;20044;-70
2023/09/26 01:54:00;;;;;;;4.32;4.03;;;;;;;11.16;100.00;151481.41;10486485;28;20416;-70
2023/09/26 01:59:02;;;;;;;4.50;4.10;;;;;;;11.08;100.00;151463.31;10470502;28;20070;-71
2023/09/26 02:04:04;;;;;;;4.65;4.28;;;;;;;11.01;100.00;151443.91;10485256;28;20083;-71
2023/09/26 02:09:05;;;;;;;5.45;4.95;;;;;;;10.97;100.00;151434.88;10484558;28;20040;-71
2023/09/26 02:14:08;;;;;;;5.05;4.53;;;;;;;11.14;100.00;151476.22;10503513;28;20459;-71
2023/09/26 02:19:10;;;;;;;5.85;5.25;;;;;;;11.40;100.00;151542.09;10486084;28;20103;-71
2023/09/26 02:24:12;;;;;;;4.90;4.40;;;;;;;11.65;100.00;151606.72;10483862;28;20165;-70
2023/09/26 02:29:14;;;;;;;5.70;5.20;;;;;;;11.43;100.00;151551.16;10501861;28;20041;-70
2023/09/26 02:34:15;;;;;;;6.00;5.50;;;;;;;11.35;100.00;151530.47;10501531;28;20040;-71
2023/09/26 02:39:17;;;;;;;6.68;5.80;;;;;;;11.27;100.00;151509.81;10484589;28;20056;-70
2023/09/26 02:44:19;;;;;;;6.10;5.60;;;;;;;11.02;100.00;151446.47;10501399;28;20037;-70
2023/09/26 02:49:20;;;;;;;7.07;6.47;;;;;;;11.07;100.00;151460.72;10502011;28;20040;-70
2023/09/26 02:54:22;;;;;;;6.35;5.82;;;;;;;10.91;100.00;151419.38;10483812;28;20048;-70
2023/09/26 02:59:24;;;;;;;6.97;6.40;;;;;;;10.79;100.00;151389.66;10500564;28;20044;-70
2023/09/26 03:04:26;;;;;;;7.55;6.90;;;;;;;10.73;100.00;151372.91;10502613;28;20064;-70
2023/09/26 03:09:28;;;;;;;6.50;6.00;;;;;;;10.68;100.00;151360.00;10483068;28;20040;-69
2023/09/26 03:14:29;;;;;;;5.85;5.15;;;;;;;10.66;100.00;151354.81;10482083;28;20051;-69
2023/09/26 03:19:31;;;;;;;6.10;5.60;;;;;;;10.88;100.00;151410.34;10500086;28;20044;-69
2023/09/26 03:24:33;;;;;;;6.43;5.82;;;;;;;11.12;100.00;151472.34;10500921;28;20040;-70
2023/09/26 03:29:35;;;;;;;6.35;5.72;;;;;;;10.79;100.00;151388.38;10499570;28;20397;-70
2023/09/26 03:34:37;;;;;;;6.88;6.20;;;;;;;10.92;100.00;151421.94;10500296;28;20043;-70
2023/09/26 03:39:38;;;;;;;7.35;6.55;;;;;;;10.98;100.00;151436.16;10499648;28;20463;-69
2023/09/26 03:44:43;;;;;;;6.45;5.82;;;;;;;10.96;100.00;151431.00;10482419;28;20090;-70
2023/09/26 03:49:45;;;;;;;6.55;5.95;;;;;;;10.63;100.00;151348.38;10499535;28;20048;-71
2023/09/26 03:54:47;;;;;;;6.50;5.90;;;;;;;10.58;100.00;151336.75;10499297;28;20496;-71
2023/09/26 03:59:49;;;;;;;6.15;5.65;;;;;;;10.57;100.00;151332.84;10499648;28;20055;-71
2023/09/26 04:04:51;;;;;;;7.05;6.45;;;;;;;10.72;100.00;151371.63;10499435;28;20393;-71
2023/09/26 04:09:53;;;;;;;6.63;6.03;;;;;;;10.88;100.00;151410.34;10500093;28;20110;-71
2023/09/26 04:14:55;;;;;;;7.10;6.50;;;;;;;10.64;100.00;151349.66;10498536;28;20055;-71
2023/09/26 04:19:57;;;;;;;8.73;6.28;;;;;;;10.48;100.00;151309.63;10498874;28;20524;-71
2023/09/26 04:24:59;;;;;;;6.85;5.90;;;;;;;10.50;100.00;151316.09;10481372;28;20032;-71
2023/09/26 04:30:01;;;;;;;6.65;6.05;;;;;;;10.40;100.00;151290.22;10500899;28;20048;-71
2023/09/26 04:35:03;;;;;;;6.70;6.13;;;;;;;10.38;100.00;151283.81;10498372;28;20063;-71
2023/09/26 04:40:10;;;;;;;7.82;7.13;;;;;;;10.34;100.00;151276.06;10498764;28;20044;-71
2023/09/26 04:45:12;;;;;;;6.55;5.95;;;;;;;10.38;100.00;151283.81;10479700;28;20086;-71
2023/09/26 04:50:13;;;;;;;6.95;6.32;;;;;;;10.38;100.00;151285.09;10500123;28;20048;-71
2023/09/26 04:55:15;;;;;;;7.72;6.93;;;;;;;10.53;100.00;151322.53;10505714;28;20036;-71
2023/09/26 05:00:17;;;;;;;7.45;6.75;;;;;;;10.89;100.00;151412.91;10506138;28;20106;-70
2023/09/26 05:05:22;;;;;;;7.38;6.68;;;;;;;10.80;100.00;151390.94;10504785;28;20446;-71
2023/09/26 05:10:24;;;;;;;6.80;6.20;;;;;;;10.79;100.00;151388.38;10487039;28;20052;-71
2023/09/26 05:15:26;;;;;;;6.82;6.07;;;;;;;10.66;100.00;151354.81;10488357;28;20048;-70
2023/09/26 05:20:28;;;;;;;6.63;6.07;;;;;;;10.77;100.00;151383.22;10488202;28;20098;-71
2023/09/26 05:25:33;;;;;;;7.13;6.53;;;;;;;10.65;100.00;151353.53;10504655;28;20519;-71
2023/09/26 05:30:35;;;;;;;7.00;6.30;;;;;;;10.68;100.00;151361.28;10504405;28;20401;-71
2023/09/26 05:35:37;;;;;;;7.22;6.43;;;;;;;10.71;100.00;151367.72;10505920;28;20046;-71
2023/09/26 05:40:39;;;;;;;6.78;6.18;;;;;;;10.83;100.00;151398.72;10504457;28;20416;-71
2023/09/26 05:45:41;;;;;;;6.53;5.95;;;;;;;10.92;100.00;151421.94;10486433;28;20072;-70
2023/09/26 05:50:42;;;;;;;7.15;6.53;;;;;;;11.00;100.00;151442.63;10504737;28;20037;-71
2023/09/26 05:55:44;;;;;;;6.30;5.80;;;;;;;11.09;100.00;151465.88;10504886;28;20462;-71
2023/09/26 06:00:46;;;;;;;6.85;6.18;;;;;;;11.26;100.00;151508.50;10503119;28;20128;-70
2023/09/26 06:05:50;;;;;;;8.68;6.30;;;;;;;11.43;100.00;151549.88;10503089;28;20163;-70
2023/09/26 06:10:52;;;;;;;5.82;5.38;;;;;;;11.57;100.00;151586.03;10502912;28;20044;-71
2023/09/26 06:15:54;;;;;;;6.10;5.60;;;;;;;11.66;100.00;151609.28;10501738;28;20086;-70
2023/09/26 06:20:57;;;;;;;5.70;5.20;;;;;;;11.83;100.00;151653.28;10502506;28;20048;-70
2023/09/26 06:26:00;;;;;;;7.25;6.57;;;;;;;12.05;100.00;151708.88;10483629;28;20094;-71
2023/09/26 06:31:06;;;;;;;6.53;6.03;;;;;;;12.23;100.00;151754.09;10484877;28;20110;-70
2023/09/26 06:36:18;;;;;;;7.65;6.95;;;;;;;12.43;100.00;151803.22;10470265;28;20045;-70
2023/09/26 06:41:19;;;;;;;6.80;6.25;;;;;;;12.71;100.00;151875.66;10443571;28;20497;-71
2023/09/26 06:46:21;;;;;;;9.00;6.63;;;;;;;12.98;100.00;151944.19;10459776;28;20095;-71
2023/09/26 06:51:24;;;;;;;7.13;6.53;;;;;;;13.28;100.00;152020.59;10460143;28;20124;-71
2023/09/26 06:56:26;;;;;;;7.80;7.10;;;;;;;13.49;100.00;152072.31;10461269;28;20041;-71
2023/09/26 07:01:28;;;;;;;8.90;8.10;;;;;;;13.81;100.00;152155.16;10443203;28;20045;-71
2023/09/26 07:06:31;;;;;;;8.63;7.90;;;;;;;14.43;100.00;152310.47;10458936;28;20048;-71
2023/09/26 07:11:33;;;;;;;7.45;6.82;;;;;;;14.62;100.00;152361.03;10458729;28;20409;-71
2023/09/26 07:16:35;;;;;;;7.80;7.20;;;;;;;14.70;100.00;152380.47;10458449;28;20044;-71
2023/09/26 07:21:36;;;;;;;7.97;7.28;;;;;;;14.98;100.00;152451.72;10459133;28;20068;-71
2023/09/26 07:26:40;;;;;;;7.00;6.30;;;;;;;15.22;100.00;152511.28;10459337;28;20041;-71
2023/09/26 07:31:42;;;;;;;7.32;6.63;;;;;;;15.64;100.00;152618.91;10440395;28;20099;-70
2023/09/26 07:36:44;;;;;;;6.88;6.38;;;;;;;15.81;100.00;152662.97;10493145;28;20548;-71
2023/09/26 07:41:45;;;;;;;7.70;7.00;;;;;;;16.05;100.00;152722.56;10477275;28;20044;-71
2023/09/26 07:46:47;;;;;;;7.57;6.97;;;;;;;16.15;100.00;152749.78;10499038;28;20041;-71
2023/09/26 07:51:49;;;;;;;7.55;6.90;;;;;;;15.93;100.00;152692.75;10478649;28;20048;-71
2023/09/26 07:56:51;;;;;;;6.72;6.22;;;;;;;16.40;100.00;152812.03;10472495;28;20049;-71
2023/09/26 08:01:53;;;;;;;7.47;6.80;;;;;;;16.32;100.00;152791.28;10457161;28;20047;-71
2023/09/26 08:06:55;;;;;;;7.30;6.70;;;;;;;16.90;100.00;152940.47;10440507;28;20040;-70
2023/09/26 08:11:56;;;;;;;5.93;5.43;;;;;;;17.46;97.42;153080.59;10456560;28;20083;-70
2023/09/26 08:16:58;;;;;;;5.72;5.22;;;;;;;17.28;100.00;153035.19;10424339;28;20436;-70
2023/09/26 08:22:00;;;;;;;5.80;5.30;;;;;;;17.76;96.14;153157.22;10457856;28;20151;-70
2023/09/26 08:27:02;;;;;;;5.88;5.40;;;;;;;17.93;94.85;153200.03;10461062;28;20037;-71
2023/09/26 08:32:04;;;;;;;5.57;5.18;;;;;;;18.04;94.48;153228.59;10423070;28;20061;-71
2023/09/26 08:37:06;;;;;;;4.68;4.38;;;;;;;18.20;93.35;153270.16;10456735;28;20123;-70
2023/09/26 08:42:08;;;;;;;5.22;4.82;;;;;;;18.43;91.53;153328.56;10465551;28;20145;-71
2023/09/26 08:47:10;;;;;;;5.07;4.65;;;;;;;18.61;91.20;153374.03;10464894;28;20041;-71
2023/09/26 08:52:12;;;;;;;4.93;4.43;;;;;;;18.83;91.12;153429.91;10465653;28;20045;-71
2023/09/26 08:57:15;;;;;;;5.20;4.80;;;;;;;19.16;88.58;153515.63;10463831;28;20039;-71
2023/09/26 09:02:17;;;;;;;4.53;4.22;;;;;;;19.36;87.95;153566.31;10445998;28;20080;-71
2023/09/26 09:07:19;;;;;;;4.90;4.45;;;;;;;19.64;86.95;153637.81;10428627;28;20084;-71
2023/09/26 09:12:21;;;;;;;4.97;4.55;;;;;;;20.02;84.46;153734.03;10465457;28;20140;-71
2023/09/26 09:17:23;;;;;;;5.60;5.15;;;;;;;20.17;82.06;153771.69;10464722;28;20041;-70
2023/09/26 09:22:25;;;;;;;4.93;4.53;;;;;;;20.62;80.57;153886.16;10464362;28;20393;-70
2023/09/26 09:27:29;;;;;;;4.45;4.13;;;;;;;20.94;78.33;153966.78;10446766;28;20099;-71
2023/09/26 09:32:31;;;;;;;4.57;4.18;;;;;;;21.22;76.67;154038.34;10464142;28;20045;-71
2023/09/26 09:37:33;;;;;;;5.28;4.88;;;;;;;21.67;73.67;154155.47;10447238;28;20045;-71
2023/09/26 09:42:36;;;;;;;5.57;5.07;;;;;;;21.96;72.07;154228.38;10463566;28;20045;-71
2023/09/26 09:47:42;;;;;;;4.82;4.43;;;;;;;22.06;72.52;154254.41;10445541;28;20037;-70
2023/09/26 09:52:48;;;;;;;4.07;3.78;;;;;;;22.51;70.13;154369.00;10445171;28;20037;-70
2023/09/26 09:57:51;;;;;;;5.55;4.00;;;;;;;22.79;67.46;154440.59;10446999;28;20086;-70
2023/09/26 10:03:00;;;;;;;4.75;4.35;;;;;;;22.82;66.32;154447.13;10462422;28;20104;-71
2023/09/26 10:08:05;;;;;;;4.10;3.25;;;;;;;23.21;64.90;154546.16;10445385;28;20037;-70
2023/09/26 10:13:07;;;;;;;4.95;4.53;;;;;;;23.06;65.23;154509.66;10462664;28;20037;-70
2023/09/26 10:18:29;;;;;;;3.88;3.58;;;;;;;23.22;65.23;154550.06;10463785;28;20061;-70
2023/09/26 10:23:31;;;;;;;4.15;3.75;;;;;;;23.39;65.30;154593.06;10462541;28;20049;-72
2023/09/26 10:28:33;;;;;;;4.35;3.47;;;;;;;23.59;62.19;154643.84;10491266;28;20040;-70
2023/09/26 10:33:35;;;;;;;3.60;3.30;;;;;;;23.69;63.22;154668.69;10503721;28;20044;-71
2023/09/26 10:39:00;;;;;;;4.70;4.30;;;;;;;24.30;61.85;154825.03;10501686;28;20071;-71
2023/09/26 10:44:04;;;;;;;3.70;3.40;;;;;;;24.33;59.79;154834.16;10501704;28;20051;-71
2023/09/26 10:49:09;;;;;;;3.95;3.60;;;;;;;24.96;58.68;154993.25;10502031;28;20459;-71
2023/09/26 10:54:11;;;;;;;2.90;2.70;;;;;;;24.83;58.28;154960.66;10501435;28;20064;-70
2023/09/26 10:59:16;;;;;;;3.47;3.17;;;;;;;25.09;56.84;155028.50;10502409;28;20127;-71
2023/09/26 11:04:18;;;;;;;2.88;2.67;;;;;;;25.33;56.93;155088.53;10485062;28;20072;-72
2023/09/26 11:09:20;;;;;;;3.22;3.03;;;;;;;25.47;55.54;155123.72;10501350;28;20496;-71
2023/09/26 11:14:23;;;;;;;2.95;2.75;;;;;;;25.50;53.44;155132.88;10500950;28;20064;-71
2023/09/26 11:19:29;;;;;;;2.55;2.35;;;;;;;25.86;53.23;155225.53;10501090;28;20581;-71
2023/09/26 11:24:31;;;;;;;2.85;2.58;;;;;;;26.01;54.09;155262.06;10502656;28;20037;-71
2023/09/26 11:29:35;;;;;;;2.78;2.58;;;;;;;26.11;51.00;155289.44;10500538;28;20404;-71
2023/09/26 11:34:38;;;;;;;2.83;2.63;;;;;;;25.99;50.81;155258.16;10500087;28;20500;-71
2023/09/26 11:39:40;;;;;;;2.53;2.33;;;;;;;26.21;50.73;155314.28;10499864;28;20051;-71
2023/09/26 11:44:51;;;;;;;3.53;3.00;;;;;;;26.45;49.84;155375.63;10500852;28;20101;-71
2023/09/26 11:49:52;;;;;;;2.67;2.47;;;;;;;26.31;48.54;155340.34;10482817;28;20072;-71
2023/09/26 11:54:54;;;;;;;3.13;2.92;;;;;;;26.27;49.84;155328.59;10499695;28;20557;-71
2023/09/26 11:59:56;;;;;;;3.00;2.80;;;;;;;26.08;48.74;155280.34;10482936;28;20500;-70
2023/09/26 12:04:58;;;;;;;4.03;3.58;;;;;;;25.63;51.66;155165.44;10508028;28;20046;-72
2023/09/26 12:10:00;;;;;;;3.47;2.92;;;;;;;25.33;51.70;155089.81;10509191;28;20044;-71
2023/09/26 12:15:18;;;;;;;3.25;2.95;;;;;;;25.06;51.96;155020.66;10508143;28;20075;-71
2023/09/26 12:20:24;;;;;;;3.30;3.00;;;;;;;24.84;51.93;154963.28;10508681;28;20040;-71
2023/09/26 12:25:30;;;;;;;3.72;3.40;;;;;;;24.77;53.24;154946.31;10506909;28;20058;-71
2023/09/26 12:30:33;;;;;;;;;;;;;;;24.64;52.49;154912.41;10508867;28;20155;-71
2023/09/26 12:35:35;;;;;;;3.08;2.78;;;;;;;24.41;53.51;154855.06;10490203;28;20016;-73
2023/09/26 12:40:37;;;;;;;3.90;3.60;;;;;;;24.35;53.11;154838.09;10489594;28;20074;-71
2023/09/26 12:45:39;;;;;;;4.10;3.75;;;;;;;24.42;53.21;154857.66;10506027;28;20048;-71
2023/09/26 12:50:41;;;;;;;3.65;3.35;;;;;;;24.25;54.97;154812.00;10507425;28;20048;-71
2023/09/26 12:55:43;;;;;;;5.28;3.92;;;;;;;24.47;53.98;154869.41;10506302;28;20111;-71
2023/09/26 13:00:45;;;;;;;4.28;3.88;;;;;;;24.42;53.49;154857.66;10505867;28;20044;-71
2023/09/26 13:05:47;;;;;;;4.57;3.58;;;;;;;24.44;52.86;154861.59;10505542;28;20048;-71
2023/09/26 13:10:48;;;;;;;3.63;3.33;;;;;;;24.34;53.59;154836.75;10504632;28;20059;-71
2023/09/26 13:15:51;;;;;;;4.03;3.72;;;;;;;24.32;53.64;154831.56;10506740;28;20111;-71
2023/09/26 13:20:53;;;;;;;4.03;3.72;;;;;;;24.29;53.69;154822.44;10487119;28;20041;-71
2023/09/26 13:25:55;;;;;;;3.60;3.30;;;;;;;24.34;54.07;154835.44;10487123;28;20574;-71
2023/09/26 13:30:56;;;;;;;3.90;3.15;;;;;;;24.26;54.79;154815.94;10504813;28;20130;-72
2023/09/26 13:35:58;;;;;;;3.35;3.05;;;;;;;24.29;54.71;154823.72;10489617;28;20036;-71
2023/09/26 13:41:00;;;;;;;4.60;3.45;;;;;;;24.37;54.21;154843.34;10504226;28;20455;-71
2023/09/26 13:46:02;;;;;;;4.65;3.28;;;;;;;24.33;54.29;154832.84;10504014;28;20406;-72
2023/09/26 13:51:05;;;;;;;2.97;2.65;;;;;;;24.33;54.81;154832.84;10504866;28;20044;-71
2023/09/26 13:56:07;;;;;;;2.35;2.15;;;;;;;24.33;54.80;154832.84;10505467;28;20135;-71
2023/09/26 14:01:10;;;;;;;3.38;3.17;;;;;;;24.34;54.53;154836.75;10488458;28;20044;-71
2023/09/26 14:06:11;;;;;;;2.80;2.60;;;;;;;24.27;55.33;154817.22;10503151;28;20090;-71
2023/09/26 14:11:14;;;;;;;3.53;3.22;;;;;;;24.28;55.23;154821.13;10504089;28;20045;-71
2023/09/26 14:16:16;;;;;;;3.88;3.10;;;;;;;24.18;56.00;154795.06;10503807;28;20056;-71
2023/09/26 14:21:18;;;;;;;3.95;3.55;;;;;;;24.14;56.04;154785.94;10504779;28;20095;-70
2023/09/26 14:26:21;;;;;;;2.88;2.67;;;;;;;24.26;55.98;154814.59;10502945;28;20094;-71
2023/09/26 14:31:23;;;;;;;4.68;3.55;;;;;;;24.11;57.03;154778.09;10485359;28;20045;-72
2023/09/26 14:36:25;;;;;;;4.10;3.70;;;;;;;23.95;57.38;154735.09;10502481;28;20036;-71
2023/09/26 14:41:26;;;;;;;3.45;3.15;;;;;;;23.94;57.34;154733.78;10485627;28;20577;-71
2023/09/26 14:46:30;;;;;;;3.60;3.30;;;;;;;23.83;57.72;154706.44;10502565;28;20119;-71
2023/09/26 14:51:32;;;;;;;3.40;3.20;;;;;;;23.98;57.63;154744.22;10502778;28;20439;-71
2023/09/26 14:56:35;;;;;;;3.88;3.58;;;;;;;23.69;58.35;154669.97;10502369;28;20074;-71
2023/09/26 15:01:37;;;;;;;3.78;3.40;;;;;;;23.72;57.84;154677.75;10487184;28;20052;-71
2023/09/26 15:06:39;;;;;;;4.63;2.90;;;;;;;23.63;58.62;154655.56;10477108;28;20033;-71
2023/09/26 15:11:40;;;;;;;3.50;3.28;;;;;;;23.45;59.07;154607.38;10444560;28;20041;-71
2023/09/26 15:16:42;;;;;;;3.17;2.88;;;;;;;23.42;59.96;154600.88;10461260;28;20045;-71
2023/09/26 15:21:44;;;;;;;3.42;3.13;;;;;;;23.37;60.53;154587.81;10461471;28;20472;-73
2023/09/26 15:26:46;;;;;;;3.15;2.95;;;;;;;23.34;60.34;154581.34;10444812;28;20095;-73
2023/09/26 15:31:48;;;;;;;3.72;3.25;;;;;;;23.29;59.93;154567.00;10461267;28;20041;-72
2023/09/26 15:36:50;;;;;;;3.20;2.90;;;;;;;23.28;59.78;154564.38;10459300;28;20457;-71
2023/09/26 15:41:51;;;;;;;3.80;3.00;;;;;;;23.18;60.20;154539.63;10461578;28;20087;-72
2023/09/26 15:46:55;;;;;;;3.78;3.03;;;;;;;23.09;60.84;154517.50;10463808;28;20049;-72
2023/09/26 15:51:57;;;;;;;3.08;2.80;;;;;;;23.15;60.66;154533.16;10453593;28;20057;-71
2023/09/26 15:56:59;;;;;;;3.10;2.78;;;;;;;23.04;61.30;154503.19;10462664;28;20470;-70
2023/09/26 16:02:01;;;;;;;3.20;2.95;;;;;;;23.05;61.11;154505.78;10460514;28;20125;-72
2023/09/26 16:07:08;;;;;;;2.78;2.55;;;;;;;22.81;61.84;154445.84;10443940;28;20480;-72
2023/09/26 16:12:10;;;;;;;2.97;2.75;;;;;;;22.56;63.25;154380.72;10470917;28;20415;-72
2023/09/26 16:17:12;;;;;;;3.30;3.00;;;;;;;22.22;64.92;154294.78;10486852;28;20040;-69
2023/09/26 16:22:13;;;;;;;3.17;2.88;;;;;;;22.03;66.02;154246.56;10457329;28;20063;-72
2023/09/26 16:27:16;;;;;;;2.78;2.58;;;;;;;21.97;66.31;154230.97;10423827;28;20090;-71
2023/09/26 16:32:18;;;;;;;2.83;2.63;;;;;;;21.94;66.91;154223.16;10459228;28;20041;-70
2023/09/26 16:37:20;;;;;;;3.67;3.33;;;;;;;21.69;67.75;154159.38;10457345;28;20112;-72
2023/09/26 16:42:23;;;;;;;3.40;3.10;;;;;;;21.53;68.43;154117.75;10440513;28;20058;-71
2023/09/26 16:47:25;;;;;;;4.22;2.72;;;;;;;21.21;70.16;154037.06;10462362;28;20087;-71
2023/09/26 16:52:26;;;;;;;3.17;2.80;;;;;;;21.20;70.40;154033.13;10466399;28;20111;-73
2023/09/26 16:57:28;;;;;;;3.08;2.78;;;;;;;20.96;71.29;153973.31;10447300;28;20106;-72
2023/09/26 17:02:31;;;;;;;3.05;2.85;;;;;;;20.75;72.85;153918.69;10466144;28;20049;-73
2023/09/26 17:07:33;;;;;;;2.72;2.53;;;;;;;20.61;73.66;153884.88;10464556;28;20037;-73
2023/09/26 17:12:34;;;;;;;3.15;2.85;;;;;;;20.53;74.63;153864.06;10449868;28;20128;-73
2023/09/26 17:17:38;;;;;;;3.92;3.63;;;;;;;20.36;76.34;153819.78;10467145;28;20041;-72
2023/09/26 17:22:40;;;;;;;3.47;3.17;;;;;;;20.11;77.28;153756.13;10447547;28;20068;-73
2023/09/26 17:27:42;;;;;;;3.33;3.03;;;;;;;19.98;78.50;153723.63;10465226;28;20037;-72
2023/09/26 17:32:44;;;;;;;3.85;3.42;;;;;;;19.82;80.04;153683.31;10466743;28;20120;-73
2023/09/26 17:37:46;;;;;;;5.20;4.30;;;;;;;19.79;81.08;153675.53;10453376;28;20047;-73
2023/09/26 17:42:49;;;;;;;4.10;3.75;;;;;;;19.64;82.33;153637.81;10464818;28;20055;-74
2023/09/26 17:47:51;;;;;;;3.95;3.63;;;;;;;19.58;84.13;153620.91;10465206;28;20111;-72
2023/09/26 17:52:53;;;;;;;3.67;3.38;;;;;;;19.35;84.20;153563.72;10447021;28;20071;-74
2023/09/26 17:57:55;;;;;;;4.45;4.07;;;;;;;19.46;85.61;153591.00;10435002;28;20078;-73
2023/09/26 18:02:57;;;;;;;3.92;3.63;;;;;;;19.07;85.98;153490.97;10446402;28;20052;-74
2023/09/26 18:07:59;;;;;;;4.35;3.95;;;;;;;18.80;87.25;153423.41;10466891;28;20040;-73
2023/09/26 18:13:01;;;;;;;4.35;4.03;;;;;;;18.74;87.81;153406.56;10465213;28;20053;-74
2023/09/26 18:18:04;;;;;;;4.88;4.47;;;;;;;18.53;89.56;153354.53;10451461;28;20071;-73
2023/09/26 18:23:06;;;;;;;5.05;4.57;;;;;;;18.42;90.30;153326.00;10464054;28;20041;-74
2023/09/26 18:28:08;;;;;;;4.35;4.05;;;;;;;18.40;90.13;153322.06;10446814;28;20075;-73
2023/09/26 18:33:10;;;;;;;5.00;4.57;;;;;;;18.20;92.17;153268.88;10446252;28;20408;-74
2023/09/26 18:38:12;;;;;;;5.07;4.68;;;;;;;18.13;92.22;153253.25;10463219;28;20500;-73
2023/09/26 18:43:14;;;;;;;5.18;4.68;;;;;;;18.09;92.09;153241.56;10448089;28;20056;-73
2023/09/26 18:48:17;;;;;;;4.75;4.35;;;;;;;18.06;92.95;153235.13;10462512;28;20129;-74
2023/09/26 18:53:19;;;;;;;5.57;5.07;;;;;;;18.32;95.50;153300.00;10465588;28;20044;-74
2023/09/26 18:58:21;;;;;;;7.05;5.97;;;;;;;18.29;95.56;153292.25;10464689;28;20037;-73
2023/09/26 19:03:23;;;;;;;6.75;6.25;;;;;;;18.41;94.49;153323.34;10462529;28;20175;-73
2023/09/26 19:08:25;;;;;;;6.78;6.18;;;;;;;18.31;94.79;153297.41;10447298;28;20037;-73
2023/09/26 19:13:26;;;;;;;6.10;5.60;;;;;;;17.88;95.80;153188.34;10460707;28;20037;-74
2023/09/26 19:18:28;;;;;;;5.45;5.05;;;;;;;17.71;97.63;153145.50;10461766;28;20378;-74
2023/09/26 19:23:30;;;;;;;5.43;5.03;;;;;;;17.56;97.97;153107.84;10464041;28;20560;-73
2023/09/26 19:28:32;;;;;;;6.00;5.50;;;;;;;17.51;98.51;153094.88;10463166;28;20060;-74
2023/09/26 19:33:34;;;;;;;7.07;6.53;;;;;;;17.93;98.66;153201.38;10461116;28;20052;-73
2023/09/26 19:38:36;;;;;;;6.20;5.60;;;;;;;17.51;100.00;153094.88;10460064;28;20036;-73
2023/09/26 19:43:37;;;;;;;5.72;5.32;;;;;;;17.33;100.00;153048.16;10459723;28;20052;-74
2023/09/26 19:48:39;;;;;;;5.95;5.55;;;;;;;17.24;100.00;153024.81;10443577;28;20390;-73
2023/09/26 19:53:41;;;;;;;6.47;5.95;;;;;;;17.35;100.00;153053.31;10441731;28;20060;-73
2023/09/26 19:58:43;;;;;;;6.60;6.00;;;;;;;17.44;100.00;153076.69;10460190;28;20051;-72
2023/09/26 20:03:45;;;;;;;6.13;5.63;;;;;;;17.19;100.00;153011.84;10459540;28;20045;-73
2023/09/26 20:08:48;;;;;;;7.13;6.53;;;;;;;17.18;100.00;153010.56;10461359;28;20041;-73
2023/09/26 20:13:49;;;;;;;7.40;6.72;;;;;;;16.90;100.00;152939.16;10459292;28;20053;-73
2023/09/26 20:18:51;;;;;;;6.20;5.72;;;;;;;17.02;100.00;152969.03;10459614;28;20041;-72
2023/09/26 20:23:53;;;;;;;7.88;7.18;;;;;;;17.22;100.00;153020.94;10467666;28;20045;-72
2023/09/26 20:28:55;;;;;;;6.93;6.32;;;;;;;16.87;100.00;152932.72;10470050;28;20045;-72
2023/09/26 20:33:57;;;;;;;7.63;6.93;;;;;;;16.96;100.00;152954.75;10450016;28;20527;-72
2023/09/26 20:38:59;;;;;;;8.05;7.35;;;;;;;17.04;100.00;152975.47;10433445;28;20094;-72
2023/09/26 20:44:01;;;;;;;8.23;7.53;;;;;;;17.00;100.00;152965.16;10468415;28;20045;-73
2023/09/26 20:49:03;;;;;;;7.38;6.78;;;;;;;16.96;100.00;152954.75;10466509;28;20044;-73
2023/09/26 20:54:05;;;;;;;8.02;7.32;;;;;;;16.75;100.00;152900.28;10451374;28;20040;-73
2023/09/26 20:59:06;;;;;;;7.30;6.60;;;;;;;16.57;100.00;152856.13;10448855;28;20439;-74
2023/09/26 21:04:08;;;;;;;7.88;7.18;;;;;;;16.60;100.00;152862.59;10465920;28;20065;-73
2023/09/26 21:09:10;;;;;;;7.15;6.55;;;;;;;16.46;100.00;152826.28;10448358;28;20045;-73
2023/09/26 21:14:12;;;;;;;7.30;6.70;;;;;;;16.29;100.00;152784.84;10468538;28;20388;-72
2023/09/26 21:19:16;;;;;;;7.18;6.57;;;;;;;16.25;100.00;152773.16;10447085;28;20099;-74
2023/09/26 21:24:18;;;;;;;7.35;6.75;;;;;;;16.14;100.00;152745.91;10446593;28;20059;-73
2023/09/26 21:29:20;;;;;;;8.10;7.40;;;;;;;16.13;100.00;152744.63;10446535;28;20132;-72
2023/09/26 21:34:22;;;;;;;7.57;6.93;;;;;;;16.06;100.00;152726.44;10466213;28;20055;-74
2023/09/26 21:39:23;;;;;;;7.88;7.18;;;;;;;16.09;100.00;152734.25;10464446;28;20040;-72
2023/09/26 21:44:26;;;;;;;8.15;7.55;;;;;;;16.01;100.00;152712.22;10464135;28;20048;-73
2023/09/26 21:49:27;;;;;;;7.10;6.50;;;;;;;15.98;100.00;152705.75;10445403;28;20044;-73
2023/09/26 21:54:29;;;;;;;8.30;7.25;;;;;;;15.89;100.00;152682.38;10462901;28;20037;-73
2023/09/26 21:59:31;;;;;;;7.70;7.10;;;;;;;15.88;100.00;152681.09;10464169;28;20041;-72
2023/09/26 22:04:33;;;;;;;7.22;6.68;;;;;;;15.87;100.00;152677.22;10462153;28;20154;-72
2023/09/26 22:09:34;;;;;;;6.93;6.38;;;;;;;15.74;100.00;152644.81;10446648;28;20036;-73
2023/09/26 22:14:37;;;;;;;7.75;7.13;;;;;;;15.95;100.00;152696.66;10446482;28;20041;-73
2023/09/26 22:19:39;;;;;;;8.52;7.60;;;;;;;16.17;100.00;152752.41;10466274;28;20037;-72
2023/09/26 22:24:40;;;;;;;7.38;6.78;;;;;;;15.81;100.00;152661.69;10444894;28;20139;-72
2023/09/26 22:29:42;;;;;;;8.98;8.13;;;;;;;15.82;100.00;152664.25;10462611;28;20041;-73
2023/09/26 22:34:45;;;;;;;8.60;7.90;;;;;;;15.70;100.00;152634.44;10463582;28;20048;-71
2023/09/26 22:39:48;;;;;;;8.50;7.80;;;;;;;15.75;100.00;152647.38;10446641;28;20049;-72
2023/09/26 22:44:51;;;;;;;9.35;8.57;;;;;;;15.77;100.00;152651.31;10461000;28;20045;-74
2023/09/26 22:49:53;;;;;;;8.07;7.45;;;;;;;15.78;100.00;152655.19;10445206;28;20044;-72
2023/09/26 22:54:56;;;;;;;10.55;7.88;;;;;;;15.76;100.00;152648.69;10462306;28;20052;-72
2023/09/26 22:59:58;;;;;;;9.20;8.10;;;;;;;15.59;100.00;152605.91;10461281;28;20440;-72
2023/09/26 23:05:00;;;;;;;8.02;7.43;;;;;;;15.34;100.00;152543.69;10461139;28;20049;-73